sensor_id;sensor_type;location;lat;lon;timestamp;P1;durP1;ratioP1;P2;durP2;ratioP2
29452;SDS011;16424;50.956;5.320;2024-03-25T00:01:00;16.10;;;9.65;;
29452;SDS011;16424;50.956;5.320;2024-03-25T00:03:26;23.33;;;10.15;;
29452;SDS011;16424;50.956;5.320;2024-03-25T00:05:51;21.02;;;11.60;;
29452;SDS011;16424;50.956;5.320;2024-03-25T00:08:17;14.27;;;10.95;;
29452;SDS011;16424;50.956;5.320;2024-03-25T00:10:43;15.38;;;9.90;;
29452;SDS011;16424;50.956;5.320;2024-03-25T00:13:08;15.30;;;10.20;;
29452;SDS011;16424;50.956;5.320;2024-03-25T00:15:35;16.17;;;10.25;;
29452;SDS011;16424;50.956;5.320;2024-03-25T00:18:02;20.00;;;10.98;;
29452;SDS011;16424;50.956;5.320;2024-03-25T00:20:29;13.38;;;10.80;;
29452;SDS011;16424;50.956;5.320;2024-03-25T00:22:54;23.13;;;11.15;;
29452;SDS011;16424;50.956;5.320;2024-03-25T00:25:20;16.55;;;12.48;;
29452;SDS011;16424;50.956;5.320;2024-03-25T00:27:45;13.93;;;11.30;;
29452;SDS011;16424;50.956;5.320;2024-03-25T00:30:11;20.85;;;11.82;;
29452;SDS011;16424;50.956;5.320;2024-03-25T00:32:37;19.52;;;11.20;;
29452;SDS011;16424;50.956;5.320;2024-03-25T00:35:03;16.92;;;11.48;;
29452;SDS011;16424;50.956;5.320;2024-03-25T00:37:29;25.50;;;12.38;;
29452;SDS011;16424;50.956;5.320;2024-03-25T00:39:55;23.77;;;13.65;;
29452;SDS011;16424;50.956;5.320;2024-03-25T00:42:20;16.63;;;12.70;;
29452;SDS011;16424;50.956;5.320;2024-03-25T00:44:46;15.77;;;12.77;;
29452;SDS011;16424;50.956;5.320;2024-03-25T00:47:11;20.23;;;12.63;;
29452;SDS011;16424;50.956;5.320;2024-03-25T00:49:37;16.50;;;13.00;;
29452;SDS011;16424;50.956;5.320;2024-03-25T00:52:03;19.40;;;12.38;;
29452;SDS011;16424;50.956;5.320;2024-03-25T00:54:29;17.60;;;12.32;;
29452;SDS011;16424;50.956;5.320;2024-03-25T00:56:55;17.08;;;13.25;;
29452;SDS011;16424;50.956;5.320;2024-03-25T00:59:21;15.93;;;12.98;;
29452;SDS011;16424;50.956;5.320;2024-03-25T01:01:46;20.13;;;12.90;;
29452;SDS011;16424;50.956;5.320;2024-03-25T01:04:12;16.15;;;13.05;;
29452;SDS011;16424;50.956;5.320;2024-03-25T01:06:38;13.68;;;11.52;;
29452;SDS011;16424;50.956;5.320;2024-03-25T01:09:03;14.23;;;12.80;;
29452;SDS011;16424;50.956;5.320;2024-03-25T01:11:29;22.00;;;12.70;;
29452;SDS011;16424;50.956;5.320;2024-03-25T01:13:55;23.65;;;13.93;;
29452;SDS011;16424;50.956;5.320;2024-03-25T01:16:21;21.05;;;13.32;;
29452;SDS011;16424;50.956;5.320;2024-03-25T01:18:47;20.73;;;13.75;;
29452;SDS011;16424;50.956;5.320;2024-03-25T01:21:13;18.40;;;13.88;;
29452;SDS011;16424;50.956;5.320;2024-03-25T01:23:39;20.95;;;13.30;;
29452;SDS011;16424;50.956;5.320;2024-03-25T01:26:05;18.85;;;13.60;;
29452;SDS011;16424;50.956;5.320;2024-03-25T01:28:31;16.48;;;12.57;;
29452;SDS011;16424;50.956;5.320;2024-03-25T01:30:57;18.40;;;13.13;;
29452;SDS011;16424;50.956;5.320;2024-03-25T01:33:23;15.63;;;12.30;;
29452;SDS011;16424;50.956;5.320;2024-03-25T01:35:48;16.17;;;11.82;;
29452;SDS011;16424;50.956;5.320;2024-03-25T01:38:15;14.35;;;11.75;;
29452;SDS011;16424;50.956;5.320;2024-03-25T01:40:40;17.30;;;11.45;;
29452;SDS011;16424;50.956;5.320;2024-03-25T01:43:06;13.55;;;11.43;;
29452;SDS011;16424;50.956;5.320;2024-03-25T01:45:35;19.23;;;11.40;;
29452;SDS011;16424;50.956;5.320;2024-03-25T01:48:07;17.65;;;11.52;;
29452;SDS011;16424;50.956;5.320;2024-03-25T01:50:35;18.37;;;11.13;;
29452;SDS011;16424;50.956;5.320;2024-03-25T01:53:04;15.00;;;11.77;;
29452;SDS011;16424;50.956;5.320;2024-03-25T01:55:30;19.05;;;11.60;;
29452;SDS011;16424;50.956;5.320;2024-03-25T01:57:59;17.33;;;11.65;;
29452;SDS011;16424;50.956;5.320;2024-03-25T02:00:25;15.02;;;11.57;;
29452;SDS011;16424;50.956;5.320;2024-03-25T02:02:52;17.40;;;11.52;;
29452;SDS011;16424;50.956;5.320;2024-03-25T02:05:18;16.77;;;12.18;;
29452;SDS011;16424;50.956;5.320;2024-03-25T02:07:44;17.92;;;12.10;;
29452;SDS011;16424;50.956;5.320;2024-03-25T02:10:10;16.63;;;11.85;;
29452;SDS011;16424;50.956;5.320;2024-03-25T02:12:40;17.17;;;11.88;;
29452;SDS011;16424;50.956;5.320;2024-03-25T02:15:06;14.18;;;11.32;;
29452;SDS011;16424;50.956;5.320;2024-03-25T02:17:33;16.23;;;13.05;;
29452;SDS011;16424;50.956;5.320;2024-03-25T02:19:59;18.13;;;12.05;;
29452;SDS011;16424;50.956;5.320;2024-03-25T02:22:25;15.15;;;12.45;;
29452;SDS011;16424;50.956;5.320;2024-03-25T02:24:52;17.13;;;12.73;;
29452;SDS011;16424;50.956;5.320;2024-03-25T02:27:18;15.50;;;13.65;;
29452;SDS011;16424;50.956;5.320;2024-03-25T02:29:44;20.95;;;14.48;;
29452;SDS011;16424;50.956;5.320;2024-03-25T02:32:10;15.73;;;13.43;;
29452;SDS011;16424;50.956;5.320;2024-03-25T02:34:39;19.25;;;13.68;;
29452;SDS011;16424;50.956;5.320;2024-03-25T02:37:10;15.30;;;13.70;;
29452;SDS011;16424;50.956;5.320;2024-03-25T02:39:36;14.73;;;12.35;;
29452;SDS011;16424;50.956;5.320;2024-03-25T02:42:02;14.93;;;12.50;;
29452;SDS011;16424;50.956;5.320;2024-03-25T02:44:28;14.43;;;12.40;;
29452;SDS011;16424;50.956;5.320;2024-03-25T02:46:56;14.57;;;11.80;;
29452;SDS011;16424;50.956;5.320;2024-03-25T02:49:23;13.13;;;11.20;;
29452;SDS011;16424;50.956;5.320;2024-03-25T02:51:48;13.75;;;11.80;;
29452;SDS011;16424;50.956;5.320;2024-03-25T02:54:14;13.88;;;11.30;;
29452;SDS011;16424;50.956;5.320;2024-03-25T02:56:40;15.57;;;12.40;;
29452;SDS011;16424;50.956;5.320;2024-03-25T02:59:06;16.40;;;12.75;;
29452;SDS011;16424;50.956;5.320;2024-03-25T03:01:31;14.38;;;12.57;;
29452;SDS011;16424;50.956;5.320;2024-03-25T03:03:57;18.23;;;13.73;;
29452;SDS011;16424;50.956;5.320;2024-03-25T03:06:23;19.67;;;12.90;;
29452;SDS011;16424;50.956;5.320;2024-03-25T03:08:49;19.10;;;13.93;;
29452;SDS011;16424;50.956;5.320;2024-03-25T03:11:14;20.67;;;14.45;;
29452;SDS011;16424;50.956;5.320;2024-03-25T03:13:40;21.42;;;14.07;;
29452;SDS011;16424;50.956;5.320;2024-03-25T03:16:05;26.30;;;14.77;;
29452;SDS011;16424;50.956;5.320;2024-03-25T03:18:31;28.08;;;17.55;;
29452;SDS011;16424;50.956;5.320;2024-03-25T03:20:57;22.02;;;15.95;;
29452;SDS011;16424;50.956;5.320;2024-03-25T03:23:22;24.48;;;16.27;;
29452;SDS011;16424;50.956;5.320;2024-03-25T03:25:48;30.38;;;16.63;;
29452;SDS011;16424;50.956;5.320;2024-03-25T03:28:14;28.33;;;16.65;;
29452;SDS011;16424;50.956;5.320;2024-03-25T03:30:40;22.73;;;15.70;;
29452;SDS011;16424;50.956;5.320;2024-03-25T03:33:06;22.75;;;15.27;;
29452;SDS011;16424;50.956;5.320;2024-03-25T03:35:32;21.90;;;14.20;;
29452;SDS011;16424;50.956;5.320;2024-03-25T03:37:58;24.15;;;15.13;;
29452;SDS011;16424;50.956;5.320;2024-03-25T03:40:24;27.50;;;17.13;;
29452;SDS011;16424;50.956;5.320;2024-03-25T03:42:50;27.27;;;16.00;;
29452;SDS011;16424;50.956;5.320;2024-03-25T03:45:15;18.60;;;14.93;;
29452;SDS011;16424;50.956;5.320;2024-03-25T03:47:41;27.02;;;16.48;;
29452;SDS011;16424;50.956;5.320;2024-03-25T03:50:07;25.30;;;17.95;;
29452;SDS011;16424;50.956;5.320;2024-03-25T03:52:33;22.30;;;17.42;;
29452;SDS011;16424;50.956;5.320;2024-03-25T03:54:58;23.38;;;17.08;;
29452;SDS011;16424;50.956;5.320;2024-03-25T03:57:24;23.63;;;18.48;;
29452;SDS011;16424;50.956;5.320;2024-03-25T03:59:53;23.40;;;16.83;;
29452;SDS011;16424;50.956;5.320;2024-03-25T04:02:18;27.52;;;18.42;;
29452;SDS011;16424;50.956;5.320;2024-03-25T04:04:45;20.63;;;17.52;;
29452;SDS011;16424;50.956;5.320;2024-03-25T04:07:10;27.05;;;16.30;;
29452;SDS011;16424;50.956;5.320;2024-03-25T04:09:36;23.33;;;16.02;;
29452;SDS011;16424;50.956;5.320;2024-03-25T04:12:08;24.10;;;17.10;;
29452;SDS011;16424;50.956;5.320;2024-03-25T04:14:35;25.10;;;15.00;;
29452;SDS011;16424;50.956;5.320;2024-03-25T04:17:00;21.30;;;15.80;;
29452;SDS011;16424;50.956;5.320;2024-03-25T04:19:26;17.45;;;15.60;;
29452;SDS011;16424;50.956;5.320;2024-03-25T04:21:55;17.42;;;14.57;;
29452;SDS011;16424;50.956;5.320;2024-03-25T04:24:21;17.13;;;15.00;;
29452;SDS011;16424;50.956;5.320;2024-03-25T04:26:46;15.40;;;13.30;;
29452;SDS011;16424;50.956;5.320;2024-03-25T04:29:12;17.23;;;15.50;;
29452;SDS011;16424;50.956;5.320;2024-03-25T04:31:40;17.45;;;15.73;;
29452;SDS011;16424;50.956;5.320;2024-03-25T04:34:05;17.83;;;14.60;;
29452;SDS011;16424;50.956;5.320;2024-03-25T04:36:31;16.02;;;13.30;;
29452;SDS011;16424;50.956;5.320;2024-03-25T04:38:56;15.05;;;12.63;;
29452;SDS011;16424;50.956;5.320;2024-03-25T04:41:22;19.23;;;12.93;;
29452;SDS011;16424;50.956;5.320;2024-03-25T04:43:48;15.38;;;11.82;;
29452;SDS011;16424;50.956;5.320;2024-03-25T04:46:14;15.63;;;11.90;;
29452;SDS011;16424;50.956;5.320;2024-03-25T04:48:39;15.77;;;12.48;;
29452;SDS011;16424;50.956;5.320;2024-03-25T04:51:05;17.83;;;12.60;;
29452;SDS011;16424;50.956;5.320;2024-03-25T04:53:31;15.93;;;12.00;;
29452;SDS011;16424;50.956;5.320;2024-03-25T04:55:57;16.65;;;12.52;;
29452;SDS011;16424;50.956;5.320;2024-03-25T04:58:23;17.20;;;12.75;;
29452;SDS011;16424;50.956;5.320;2024-03-25T05:00:48;16.38;;;12.98;;
29452;SDS011;16424;50.956;5.320;2024-03-25T05:03:14;16.95;;;13.07;;
29452;SDS011;16424;50.956;5.320;2024-03-25T05:05:39;15.70;;;12.98;;
29452;SDS011;16424;50.956;5.320;2024-03-25T05:08:06;18.73;;;12.88;;
29452;SDS011;16424;50.956;5.320;2024-03-25T05:10:31;14.82;;;12.50;;
29452;SDS011;16424;50.956;5.320;2024-03-25T05:12:57;20.38;;;13.20;;
29452;SDS011;16424;50.956;5.320;2024-03-25T05:15:22;18.33;;;14.57;;
29452;SDS011;16424;50.956;5.320;2024-03-25T05:17:48;15.93;;;14.15;;
29452;SDS011;16424;50.956;5.320;2024-03-25T05:20:14;16.45;;;14.75;;
29452;SDS011;16424;50.956;5.320;2024-03-25T05:22:39;19.52;;;15.25;;
29452;SDS011;16424;50.956;5.320;2024-03-25T05:25:05;16.65;;;14.70;;
29452;SDS011;16424;50.956;5.320;2024-03-25T05:27:31;22.38;;;14.68;;
29452;SDS011;16424;50.956;5.320;2024-03-25T05:29:56;21.77;;;15.82;;
29452;SDS011;16424;50.956;5.320;2024-03-25T05:32:22;22.27;;;16.42;;
29452;SDS011;16424;50.956;5.320;2024-03-25T05:34:47;25.13;;;16.00;;
29452;SDS011;16424;50.956;5.320;2024-03-25T05:37:13;18.80;;;17.00;;
29452;SDS011;16424;50.956;5.320;2024-03-25T05:39:39;17.40;;;15.75;;
29452;SDS011;16424;50.956;5.320;2024-03-25T05:42:05;20.80;;;15.75;;
29452;SDS011;16424;50.956;5.320;2024-03-25T05:44:31;18.73;;;16.73;;
29452;SDS011;16424;50.956;5.320;2024-03-25T05:46:56;18.20;;;16.30;;
29452;SDS011;16424;50.956;5.320;2024-03-25T05:49:22;22.55;;;18.27;;
29452;SDS011;16424;50.956;5.320;2024-03-25T05:51:48;19.60;;;16.15;;
29452;SDS011;16424;50.956;5.320;2024-03-25T05:54:13;21.38;;;15.57;;
29452;SDS011;16424;50.956;5.320;2024-03-25T05:56:39;18.10;;;16.38;;
29452;SDS011;16424;50.956;5.320;2024-03-25T05:59:05;17.80;;;15.85;;
29452;SDS011;16424;50.956;5.320;2024-03-25T06:01:31;16.50;;;14.75;;
29452;SDS011;16424;50.956;5.320;2024-03-25T06:03:56;16.90;;;14.95;;
29452;SDS011;16424;50.956;5.320;2024-03-25T06:06:22;18.65;;;14.65;;
29452;SDS011;16424;50.956;5.320;2024-03-25T06:08:48;17.75;;;15.05;;
29452;SDS011;16424;50.956;5.320;2024-03-25T06:11:15;17.08;;;14.85;;
29452;SDS011;16424;50.956;5.320;2024-03-25T06:13:45;20.33;;;15.15;;
29452;SDS011;16424;50.956;5.320;2024-03-25T06:16:11;21.42;;;16.65;;
29452;SDS011;16424;50.956;5.320;2024-03-25T06:18:37;19.38;;;17.38;;
29452;SDS011;16424;50.956;5.320;2024-03-25T06:21:03;20.00;;;17.95;;
29452;SDS011;16424;50.956;5.320;2024-03-25T06:23:28;21.88;;;18.10;;
29452;SDS011;16424;50.956;5.320;2024-03-25T06:25:55;21.90;;;16.52;;
29452;SDS011;16424;50.956;5.320;2024-03-25T06:28:21;24.02;;;14.75;;
29452;SDS011;16424;50.956;5.320;2024-03-25T06:30:47;17.95;;;16.15;;
29452;SDS011;16424;50.956;5.320;2024-03-25T06:33:33;21.23;;;18.60;;
29452;SDS011;16424;50.956;5.320;2024-03-25T06:36:17;18.70;;;16.83;;
29452;SDS011;16424;50.956;5.320;2024-03-25T06:38:43;20.83;;;13.43;;
29452;SDS011;16424;50.956;5.320;2024-03-25T06:41:09;12.90;;;10.88;;
29452;SDS011;16424;50.956;5.320;2024-03-25T06:43:38;12.75;;;8.70;;
29452;SDS011;16424;50.956;5.320;2024-03-25T06:46:05;12.63;;;6.65;;
29452;SDS011;16424;50.956;5.320;2024-03-25T06:48:31;10.52;;;6.25;;
29452;SDS011;16424;50.956;5.320;2024-03-25T06:50:57;24.45;;;7.10;;
29452;SDS011;16424;50.956;5.320;2024-03-25T06:53:24;13.27;;;6.57;;
29452;SDS011;16424;50.956;5.320;2024-03-25T06:55:53;14.93;;;7.57;;
29452;SDS011;16424;50.956;5.320;2024-03-25T06:58:24;12.93;;;7.57;;
29452;SDS011;16424;50.956;5.320;2024-03-25T07:00:53;13.75;;;7.80;;
29452;SDS011;16424;50.956;5.320;2024-03-25T07:03:20;17.17;;;7.15;;
29452;SDS011;16424;50.956;5.320;2024-03-25T07:05:50;18.27;;;9.15;;
29452;SDS011;16424;50.956;5.320;2024-03-25T07:08:20;18.90;;;14.50;;
29452;SDS011;16424;50.956;5.320;2024-03-25T07:10:46;21.70;;;15.10;;
29452;SDS011;16424;50.956;5.320;2024-03-25T07:13:12;19.15;;;15.60;;
29452;SDS011;16424;50.956;5.320;2024-03-25T07:15:38;21.17;;;17.00;;
29452;SDS011;16424;50.956;5.320;2024-03-25T07:18:04;23.30;;;16.77;;
29452;SDS011;16424;50.956;5.320;2024-03-25T07:20:30;19.58;;;17.77;;
29452;SDS011;16424;50.956;5.320;2024-03-25T07:22:56;22.30;;;18.23;;
29452;SDS011;16424;50.956;5.320;2024-03-25T07:25:22;20.77;;;19.05;;
29452;SDS011;16424;50.956;5.320;2024-03-25T07:27:49;21.75;;;19.80;;
29452;SDS011;16424;50.956;5.320;2024-03-25T07:30:14;27.85;;;20.38;;
29452;SDS011;16424;50.956;5.320;2024-03-25T07:32:40;23.67;;;21.15;;
29452;SDS011;16424;50.956;5.320;2024-03-25T07:35:06;24.65;;;20.67;;
29452;SDS011;16424;50.956;5.320;2024-03-25T07:37:34;21.67;;;19.50;;
29452;SDS011;16424;50.956;5.320;2024-03-25T07:40:00;19.80;;;17.40;;
29452;SDS011;16424;50.956;5.320;2024-03-25T07:42:25;20.67;;;18.23;;
29452;SDS011;16424;50.956;5.320;2024-03-25T07:44:51;20.73;;;18.35;;
29452;SDS011;16424;50.956;5.320;2024-03-25T07:47:17;20.13;;;17.70;;
29452;SDS011;16424;50.956;5.320;2024-03-25T07:49:43;19.65;;;17.90;;
29452;SDS011;16424;50.956;5.320;2024-03-25T07:52:09;19.10;;;17.30;;
29452;SDS011;16424;50.956;5.320;2024-03-25T07:54:34;19.73;;;17.83;;
29452;SDS011;16424;50.956;5.320;2024-03-25T07:57:02;19.27;;;17.65;;
29452;SDS011;16424;50.956;5.320;2024-03-25T07:59:29;22.23;;;18.60;;
29452;SDS011;16424;50.956;5.320;2024-03-25T08:01:54;18.23;;;16.33;;
29452;SDS011;16424;50.956;5.320;2024-03-25T08:04:20;15.93;;;14.15;;
29452;SDS011;16424;50.956;5.320;2024-03-25T08:06:46;17.92;;;16.02;;
29452;SDS011;16424;50.956;5.320;2024-03-25T08:09:11;26.00;;;16.20;;
29452;SDS011;16424;50.956;5.320;2024-03-25T08:11:39;17.05;;;15.38;;
29452;SDS011;16424;50.956;5.320;2024-03-25T08:14:04;17.25;;;15.68;;
29452;SDS011;16424;50.956;5.320;2024-03-25T08:16:30;17.20;;;15.63;;
29452;SDS011;16424;50.956;5.320;2024-03-25T08:18:56;18.40;;;16.63;;
29452;SDS011;16424;50.956;5.320;2024-03-25T08:21:22;20.58;;;16.77;;
29452;SDS011;16424;50.956;5.320;2024-03-25T08:23:48;19.05;;;17.17;;
29452;SDS011;16424;50.956;5.320;2024-03-25T08:26:14;22.60;;;14.73;;
29452;SDS011;16424;50.956;5.320;2024-03-25T08:28:39;16.50;;;14.85;;
29452;SDS011;16424;50.956;5.320;2024-03-25T08:31:05;15.10;;;13.73;;
29452;SDS011;16424;50.956;5.320;2024-03-25T08:33:31;15.63;;;13.07;;
29452;SDS011;16424;50.956;5.320;2024-03-25T08:35:56;13.38;;;11.35;;
29452;SDS011;16424;50.956;5.320;2024-03-25T08:38:22;14.40;;;12.57;;
29452;SDS011;16424;50.956;5.320;2024-03-25T08:40:48;11.13;;;9.98;;
29452;SDS011;16424;50.956;5.320;2024-03-25T08:43:13;14.70;;;11.32;;
29452;SDS011;16424;50.956;5.320;2024-03-25T08:45:39;13.70;;;9.60;;
29452;SDS011;16424;50.956;5.320;2024-03-25T08:48:05;13.50;;;8.73;;
29452;SDS011;16424;50.956;5.320;2024-03-25T08:50:31;15.82;;;14.40;;
29452;SDS011;16424;50.956;5.320;2024-03-25T08:52:57;15.68;;;13.90;;
29452;SDS011;16424;50.956;5.320;2024-03-25T08:55:23;12.98;;;8.10;;
29452;SDS011;16424;50.956;5.320;2024-03-25T08:57:48;12.30;;;7.93;;
29452;SDS011;16424;50.956;5.320;2024-03-25T09:00:14;11.63;;;8.40;;
29452;SDS011;16424;50.956;5.320;2024-03-25T09:02:40;11.20;;;7.88;;
29452;SDS011;16424;50.956;5.320;2024-03-25T09:05:07;12.80;;;7.15;;
29452;SDS011;16424;50.956;5.320;2024-03-25T09:07:33;8.65;;;5.35;;
29452;SDS011;16424;50.956;5.320;2024-03-25T09:09:59;10.75;;;6.18;;
29452;SDS011;16424;50.956;5.320;2024-03-25T09:12:43;18.00;;;6.77;;
29452;SDS011;16424;50.956;5.320;2024-03-25T09:15:09;13.98;;;6.22;;
29452;SDS011;16424;50.956;5.320;2024-03-25T09:17:35;11.55;;;6.28;;
29452;SDS011;16424;50.956;5.320;2024-03-25T09:20:01;7.00;;;4.38;;
29452;SDS011;16424;50.956;5.320;2024-03-25T09:22:41;11.65;;;4.90;;
29452;SDS011;16424;50.956;5.320;2024-03-25T09:25:10;11.90;;;4.90;;
29452;SDS011;16424;50.956;5.320;2024-03-25T09:27:36;15.48;;;4.50;;
29452;SDS011;16424;50.956;5.320;2024-03-25T09:30:02;13.55;;;4.95;;
29452;SDS011;16424;50.956;5.320;2024-03-25T09:32:33;13.50;;;4.78;;
29452;SDS011;16424;50.956;5.320;2024-03-25T09:34:59;11.02;;;4.10;;
29452;SDS011;16424;50.956;5.320;2024-03-25T09:37:25;12.85;;;3.80;;
29452;SDS011;16424;50.956;5.320;2024-03-25T09:39:51;10.68;;;3.70;;
29452;SDS011;16424;50.956;5.320;2024-03-25T09:42:27;9.43;;;3.78;;
29452;SDS011;16424;50.956;5.320;2024-03-25T09:44:57;9.32;;;4.15;;
29452;SDS011;16424;50.956;5.320;2024-03-25T09:47:23;9.52;;;4.15;;
29452;SDS011;16424;50.956;5.320;2024-03-25T09:49:49;10.38;;;4.93;;
29452;SDS011;16424;50.956;5.320;2024-03-25T09:52:16;12.35;;;3.97;;
29452;SDS011;16424;50.956;5.320;2024-03-25T09:54:43;9.25;;;4.18;;
29452;SDS011;16424;50.956;5.320;2024-03-25T09:57:09;10.05;;;4.97;;
29452;SDS011;16424;50.956;5.320;2024-03-25T09:59:36;8.32;;;3.97;;
29452;SDS011;16424;50.956;5.320;2024-03-25T10:02:02;15.27;;;3.92;;
29452;SDS011;16424;50.956;5.320;2024-03-25T10:04:28;7.32;;;3.50;;
29452;SDS011;16424;50.956;5.320;2024-03-25T10:06:54;7.32;;;3.00;;
29452;SDS011;16424;50.956;5.320;2024-03-25T10:09:21;13.18;;;4.40;;
29452;SDS011;16424;50.956;5.320;2024-03-25T10:11:47;10.13;;;3.40;;
29452;SDS011;16424;50.956;5.320;2024-03-25T10:14:14;11.50;;;4.82;;
29452;SDS011;16424;50.956;5.320;2024-03-25T10:16:45;9.15;;;3.53;;
29452;SDS011;16424;50.956;5.320;2024-03-25T10:19:14;10.77;;;3.80;;
29452;SDS011;16424;50.956;5.320;2024-03-25T10:21:40;13.30;;;3.63;;
29452;SDS011;16424;50.956;5.320;2024-03-25T10:24:05;8.65;;;4.05;;
29452;SDS011;16424;50.956;5.320;2024-03-25T10:26:32;7.35;;;3.78;;
29452;SDS011;16424;50.956;5.320;2024-03-25T10:29:04;6.07;;;3.28;;
29452;SDS011;16424;50.956;5.320;2024-03-25T10:31:35;8.73;;;3.55;;
29452;SDS011;16424;50.956;5.320;2024-03-25T10:34:01;4.63;;;3.03;;
29452;SDS011;16424;50.956;5.320;2024-03-25T10:36:27;8.18;;;3.38;;
29452;SDS011;16424;50.956;5.320;2024-03-25T10:38:54;8.10;;;3.22;;
29452;SDS011;16424;50.956;5.320;2024-03-25T10:41:21;8.65;;;3.38;;
29452;SDS011;16424;50.956;5.320;2024-03-25T10:43:49;7.30;;;4.05;;
29452;SDS011;16424;50.956;5.320;2024-03-25T10:46:18;8.38;;;2.45;;
29452;SDS011;16424;50.956;5.320;2024-03-25T10:48:52;4.88;;;2.20;;
29452;SDS011;16424;50.956;5.320;2024-03-25T10:51:20;6.75;;;2.70;;
29452;SDS011;16424;50.956;5.320;2024-03-25T10:53:48;7.53;;;3.08;;
29452;SDS011;16424;50.956;5.320;2024-03-25T10:56:18;9.93;;;3.35;;
29452;SDS011;16424;50.956;5.320;2024-03-25T10:58:46;13.32;;;3.53;;
29452;SDS011;16424;50.956;5.320;2024-03-25T11:01:13;7.35;;;2.55;;
29452;SDS011;16424;50.956;5.320;2024-03-25T11:03:40;7.18;;;3.22;;
29452;SDS011;16424;50.956;5.320;2024-03-25T11:06:06;10.27;;;3.67;;
29452;SDS011;16424;50.956;5.320;2024-03-25T11:08:32;8.68;;;4.05;;
29452;SDS011;16424;50.956;5.320;2024-03-25T11:10:57;7.93;;;3.35;;
29452;SDS011;16424;50.956;5.320;2024-03-25T11:13:23;10.30;;;4.45;;
29452;SDS011;16424;50.956;5.320;2024-03-25T11:15:51;10.35;;;4.35;;
29452;SDS011;16424;50.956;5.320;2024-03-25T11:18:18;7.82;;;4.30;;
29452;SDS011;16424;50.956;5.320;2024-03-25T11:20:59;9.15;;;4.22;;
29452;SDS011;16424;50.956;5.320;2024-03-25T11:23:25;9.10;;;3.67;;
29452;SDS011;16424;50.956;5.320;2024-03-25T11:25:55;6.00;;;3.17;;
29452;SDS011;16424;50.956;5.320;2024-03-25T11:28:28;8.02;;;3.85;;
29452;SDS011;16424;50.956;5.320;2024-03-25T11:30:55;6.18;;;4.05;;
29452;SDS011;16424;50.956;5.320;2024-03-25T11:33:21;4.13;;;2.63;;
29452;SDS011;16424;50.956;5.320;2024-03-25T11:35:47;7.75;;;2.80;;
29452;SDS011;16424;50.956;5.320;2024-03-25T11:38:14;5.72;;;2.50;;
29452;SDS011;16424;50.956;5.320;2024-03-25T11:40:41;11.27;;;3.25;;
29452;SDS011;16424;50.956;5.320;2024-03-25T11:43:17;4.82;;;2.42;;
29452;SDS011;16424;50.956;5.320;2024-03-25T11:45:44;4.20;;;2.47;;
29452;SDS011;16424;50.956;5.320;2024-03-25T11:48:12;5.18;;;2.05;;
29452;SDS011;16424;50.956;5.320;2024-03-25T11:50:39;5.45;;;2.35;;
29452;SDS011;16424;50.956;5.320;2024-03-25T11:53:05;7.10;;;2.30;;
29452;SDS011;16424;50.956;5.320;2024-03-25T11:55:31;3.92;;;2.90;;
29452;SDS011;16424;50.956;5.320;2024-03-25T11:57:57;5.78;;;2.53;;
29452;SDS011;16424;50.956;5.320;2024-03-25T12:00:23;5.05;;;3.03;;
29452;SDS011;16424;50.956;5.320;2024-03-25T12:02:49;6.40;;;3.25;;
29452;SDS011;16424;50.956;5.320;2024-03-25T12:05:16;6.72;;;2.97;;
29452;SDS011;16424;50.956;5.320;2024-03-25T12:07:42;8.02;;;3.08;;
29452;SDS011;16424;50.956;5.320;2024-03-25T12:10:08;6.20;;;2.45;;
29452;SDS011;16424;50.956;5.320;2024-03-25T12:12:52;5.75;;;3.20;;
29452;SDS011;16424;50.956;5.320;2024-03-25T12:15:18;10.48;;;3.30;;
29452;SDS011;16424;50.956;5.320;2024-03-25T12:17:44;5.70;;;3.10;;
29452;SDS011;16424;50.956;5.320;2024-03-25T12:20:10;4.05;;;2.72;;
29452;SDS011;16424;50.956;5.320;2024-03-25T12:22:36;5.05;;;3.28;;
29452;SDS011;16424;50.956;5.320;2024-03-25T12:25:02;9.40;;;3.65;;
29452;SDS011;16424;50.956;5.320;2024-03-25T12:27:31;8.60;;;3.40;;
29452;SDS011;16424;50.956;5.320;2024-03-25T12:30:01;6.88;;;3.25;;
29452;SDS011;16424;50.956;5.320;2024-03-25T12:35:07;4.97;;;2.60;;
29452;SDS011;16424;50.956;5.320;2024-03-25T12:37:41;7.53;;;2.90;;
29452;SDS011;16424;50.956;5.320;2024-03-25T12:40:12;6.70;;;3.28;;
29452;SDS011;16424;50.956;5.320;2024-03-25T12:42:51;4.28;;;2.83;;
29452;SDS011;16424;50.956;5.320;2024-03-25T12:45:18;5.00;;;3.13;;
29452;SDS011;16424;50.956;5.320;2024-03-25T12:47:45;7.57;;;2.97;;
29452;SDS011;16424;50.956;5.320;2024-03-25T12:50:10;5.47;;;2.67;;
29452;SDS011;16424;50.956;5.320;2024-03-25T12:52:36;5.90;;;2.80;;
29452;SDS011;16424;50.956;5.320;2024-03-25T12:55:02;4.78;;;3.17;;
29452;SDS011;16424;50.956;5.320;2024-03-25T12:57:28;7.43;;;2.95;;
29452;SDS011;16424;50.956;5.320;2024-03-25T12:59:54;4.00;;;2.50;;
29452;SDS011;16424;50.956;5.320;2024-03-25T13:02:20;4.00;;;2.65;;
29452;SDS011;16424;50.956;5.320;2024-03-25T13:04:46;4.38;;;3.67;;
29452;SDS011;16424;50.956;5.320;2024-03-25T13:07:11;4.20;;;3.00;;
29452;SDS011;16424;50.956;5.320;2024-03-25T13:09:37;3.38;;;3.08;;
29452;SDS011;16424;50.956;5.320;2024-03-25T13:12:03;8.05;;;3.90;;
29452;SDS011;16424;50.956;5.320;2024-03-25T13:14:29;4.10;;;3.33;;
29452;SDS011;16424;50.956;5.320;2024-03-25T13:16:54;8.02;;;3.95;;
29452;SDS011;16424;50.956;5.320;2024-03-25T13:19:20;5.50;;;3.47;;
29452;SDS011;16424;50.956;5.320;2024-03-25T13:21:46;6.30;;;4.07;;
29452;SDS011;16424;50.956;5.320;2024-03-25T13:24:12;3.95;;;3.33;;
29452;SDS011;16424;50.956;5.320;2024-03-25T13:26:38;5.65;;;4.15;;
29452;SDS011;16424;50.956;5.320;2024-03-25T13:29:04;4.10;;;3.78;;
29452;SDS011;16424;50.956;5.320;2024-03-25T13:31:30;6.45;;;4.57;;
29452;SDS011;16424;50.956;5.320;2024-03-25T13:33:55;8.85;;;4.60;;
29452;SDS011;16424;50.956;5.320;2024-03-25T13:36:21;5.03;;;3.15;;
29452;SDS011;16424;50.956;5.320;2024-03-25T13:38:47;4.97;;;4.15;;
29452;SDS011;16424;50.956;5.320;2024-03-25T13:41:15;5.18;;;4.55;;
29452;SDS011;16424;50.956;5.320;2024-03-25T13:43:43;7.78;;;4.10;;
29452;SDS011;16424;50.956;5.320;2024-03-25T13:46:09;6.32;;;3.70;;
29452;SDS011;16424;50.956;5.320;2024-03-25T13:48:37;4.85;;;4.05;;
29452;SDS011;16424;50.956;5.320;2024-03-25T13:51:02;8.43;;;3.47;;
29452;SDS011;16424;50.956;5.320;2024-03-25T13:53:28;5.07;;;4.57;;
29452;SDS011;16424;50.956;5.320;2024-03-25T13:55:54;6.38;;;5.15;;
29452;SDS011;16424;50.956;5.320;2024-03-25T13:58:20;4.50;;;4.18;;
29452;SDS011;16424;50.956;5.320;2024-03-25T14:00:45;5.82;;;5.32;;
29452;SDS011;16424;50.956;5.320;2024-03-25T14:03:11;5.95;;;5.40;;
29452;SDS011;16424;50.956;5.320;2024-03-25T14:05:37;7.63;;;5.10;;
29452;SDS011;16424;50.956;5.320;2024-03-25T14:08:02;5.95;;;4.43;;
29452;SDS011;16424;50.956;5.320;2024-03-25T14:10:28;6.68;;;4.75;;
29452;SDS011;16424;50.956;5.320;2024-03-25T14:12:55;12.25;;;4.53;;
29452;SDS011;16424;50.956;5.320;2024-03-25T14:15:21;6.78;;;5.13;;
29452;SDS011;16424;50.956;5.320;2024-03-25T14:17:47;5.88;;;5.28;;
29452;SDS011;16424;50.956;5.320;2024-03-25T14:20:12;5.95;;;5.10;;
29452;SDS011;16424;50.956;5.320;2024-03-25T14:22:38;4.97;;;4.65;;
29452;SDS011;16424;50.956;5.320;2024-03-25T14:25:04;6.18;;;5.55;;
29452;SDS011;16424;50.956;5.320;2024-03-25T14:27:30;6.82;;;5.03;;
29452;SDS011;16424;50.956;5.320;2024-03-25T14:29:55;8.52;;;5.32;;